• Join FlightAware (Why Join?)
  • Login
  • US Flag 
Trick or treat! (Boo!!) 
04:40AM EDT


 

Airport Tracker/Info


-or-


 

Live Flight TrackerFlight Track Log ✈ LBQ792 ✈ 01-May-2013 ✈ KSYR - KROC

Flight Track Log - Related Links

Times and Time Zones

All times are in EDT time to prevent confusion due to time zone crossing. See the LBQ792 flight status page for this flight to view local times or setup timezone preferences in your user account.

Time Position Orientation Groundspeed Altitude Reporting Facility
EDT Latitude Longitude Course Direction KTS MPH feet Rate Location/Type
10:10PM 43.1114 -76.0753 81° East 145 167 1,300  Level Boston Center
10:11PM 43.1433 -76.0572 22° Northeast 176 203 2,800 1,500 Climbing Boston Center
10:12PM 43.1792 -76.1078 314° West 165 190 4,500 1,440 Climbing Boston Center
10:13PM 43.1922 -76.1597 289° West 168 193 5,800 780 Climbing Boston Center
10:14PM 43.1856 -76.2333 263° West 213 245 6,000 60 Climbing Boston Center
10:15PM 43.1803 -76.3272 266° West 237 273 6,000  Level Boston Center
10:16PM 43.1756 -76.4067 265° West 236 272 6,000  Level Boston Center
10:17PM 43.1744 -76.4978 269° West 238 274 6,000  Level Boston Center
10:18PM 43.1708 -76.5942 267° West 240 276 6,000  Level Boston Center
10:19PM 43.1697 -76.6853 269° West 240 276 6,000  Level Boston Center
10:19PM 43.1669 -76.7231 264° West 241 277 6,000  Level Cleveland Center
10:20PM 43.1678 -76.8142 271° West 239 275 6,000  Level Cleveland Center
10:21PM 43.1647 -76.9111 268° West 238 274 6,000  Level Cleveland Center
10:22PM 43.1633 -76.9939 269° West 237 273 6,000  Level Cleveland Center
10:23PM 43.1597 -77.0850 267° West 239 275 6,000  Level Cleveland Center
10:24PM 43.1522 -77.1853 264° West 242 278 6,000  Level Cleveland Center
10:25PM 43.1428 -77.2881 263° West 240 276 6,000 -660 Level Cleveland Center
10:27PM 43.1372 -77.3881 266° West 248 285 4,600 -1,440 Descending Cleveland Center
10:28PM 43.1319 -77.4994 266° West 252 290 2,900 -1,140 Descending Cleveland Center
10:29PM 43.1278 -77.5850 266° West 193 222 2,300 -840 Descending Cleveland Center
10:30PM 43.1292 -77.6361 272° West 120 138 1,300 -1,020 Descending Cleveland Center
10:32PM 43.1167 -77.6667 270° West  Level FlightAware Approximate
10:39PM 43.1191 -77.6719 270° West  Level Estimated